Aviation Digital Data Service (ADDS)

Output produced by METARs form (0605 UTC 29 November 2014)
found at http://www.aviationweather.gov/adds/metars/
 
KDUJ 290553Z AUTO 18003KT 2 1/2SM -SN BR OVC028 M07/M08 A3014 RMK AO2 SNB0458 SLP232 P0000 60000 T10671083 11067 21078 58000
KDUJ 290549Z AUTO 18003KT 2 1/2SM -SN BR OVC027 M07/M08 A3014 RMK AO2 SNB0458 P0000
KDUJ 290520Z AUTO 17003KT 1 1/4SM -SN OVC025 M07/M09 A3015 RMK AO2 SNB0458 P0000 T10671094
KDUJ 290507Z AUTO 00000KT 1 3/4SM -SN OVC037 M07/M10 A3015 RMK AO2 SNB0458 P0000 T10671100
KDUJ 290453Z AUTO 00000KT 6SM HZ BKN050 OVC070 M07/M11 A3015 RMK AO2 SLP236 T10671106 410281083
KDUJ 290353Z AUTO 16004KT 10SM FEW026 OVC075 M07/M11 A3014 RMK AO2 SLP232 T10671111
KDUJ 290253Z AUTO 00000KT 10SM FEW026 BKN110 M07/M11 A3015 RMK AO2 SLP236 T10721111 56008
KDUJ 290246Z AUTO 16003KT 10SM SCT026 BKN110 M07/M11 A3015 RMK AO2 T10721106
KDUJ 290224Z AUTO 00000KT 10SM BKN027 OVC110 M08/M11 A3015 RMK AO2 T10781111
KDUJ 290153Z AUTO 00000KT 10SM FEW028 M07/M12 A3015 RMK AO2 SLP238 T10721117
KDUJ 290053Z AUTO 00000KT 10SM FEW030 FEW110 M07/M11 A3016 RMK AO2 SLP242 T10721111
KDUJ 282353Z AUTO 00000KT 10SM CLR M07/M11 A3017 RMK AO2 SLP243 60000 T10671111 11044 21083 53001
KDUJ 282306Z AUTO 23003KT 10SM SCT029 M07/M11 A3017 RMK AO2 T10721111
KDUJ 282253Z AUTO 00000KT 10SM BKN029 BKN110 M07/M11 A3017 RMK AO2 SLP243 T10671111
KDUJ 282153Z AUTO 26004KT 10SM FEW030 SCT110 M06/M11 A3017 RMK AO2 SLP241 T10611111
KDUJ 282110Z AUTO 26008KT 10SM OVC030 M05/M11 A3017 RMK AO2 T10501106
KDUJ 282053Z AUTO 25011KT 10SM OVC029 M05/M11 A3017 RMK AO2 SLP240 60000 T10501106 55002
KDUJ 282041Z AUTO 25010KT 10SM OVC029 M05/M11 A3016 RMK AO2 T10501106
KDUJ 281953Z AUTO 26008KT 10SM FEW025 OVC031 M05/M11 A3016 RMK AO2 SLP239 T10501106
KDUJ 281853Z AUTO 25011KT 10SM BKN023 OVC030 M05/M09 A3017 RMK AO2 SNE07 SLP241 P0000 T10501094
KDUJ 281839Z AUTO 27011KT 10SM BKN023 OVC029 M04/M09 A3016 RMK AO2 SNE07 P0000 T10441094
KDUJ 281808Z AUTO 26010KT 8SM SCT024 OVC032 M05/M09 A3017 RMK AO2 SNE07 P0000 T10501089
KDUJ 281753Z AUTO 28010KT 2SM -SN BKN024 OVC030 M05/M09 A3017 RMK AO2 SNE08B47 SLP243 P0000 60000 T10501089 11044 21056 58010
KDUJ 281701Z AUTO 30011G15KT 3SM -SN SCT022 OVC027 M05/M08 A3020 RMK AO2 P0000 T10501083
KDUJ 281653Z AUTO 30009KT 1 1/2SM -SN BKN022 OVC029 M05/M08 A3020 RMK AO2 SNB34 SLP251 P0000 T10501083
KDUJ 281639Z AUTO 30010KT 1 3/4SM -SN BKN020 BKN030 OVC035 M06/M08 A3020 RMK AO2 SNB34 P0000 T10561083
KDUJ 281632Z AUTO 31009G16KT 7SM BKN022 BKN029 OVC035 M05/M09 A3020 RMK AO2 T10501089
KDUJ 281553Z AUTO 28010KT 10SM SCT024 OVC035 M05/M09 A3021 RMK AO2 SLP255 T10501094
KDUJ 281542Z AUTO 28009KT 10SM BKN024 BKN029 OVC037 M05/M09 A3021 RMK AO2 T10501094
KDUJ 281453Z AUTO 26013G19KT 10SM SCT026 M05/M09 A3021 RMK AO2 SNE12 SLP253 P0000 60000 T10501094 51007
KDUJ 281434Z AUTO 28013G17KT 10SM FEW016 SCT021 M05/M09 A3020 RMK AO2 SNE12 P0000 T10501089
KDUJ 281409Z AUTO 27010KT 3SM -SN SCT014 BKN020 OVC046 M06/M08 A3020 RMK AO2 P0000 T10561083
KDUJ 281353Z AUTO 28011G19KT 1 1/2SM -SN SCT013 BKN020 OVC038 M05/M08 A3020 RMK AO2 SNE1255B33 SLP252 P0000 T10501078
KDUJ 281347Z AUTO 29010G18KT 3SM -SN BR SCT013 BKN020 OVC038 M05/M07 A3020 RMK AO2 SNE1255B33 P0000
KDUJ 281341Z AUTO 29007KT 1SM -SN BR SCT016 BKN023 OVC040 M05/M07 A3020 RMK AO2 SNE1255B33 P0000 T10501072
KDUJ 281334Z AUTO 29008KT 1 1/2SM -SN BR SCT016 SCT023 OVC040 M05/M07 A3020 RMK AO2 SNE1255B33 P0000 T10501072
KDUJ 281319Z AUTO 30009KT 8SM FEW013 OVC042 M05/M08 A3019 RMK AO2 SNE1255 P0000 T10501078
KDUJ 281256Z AUTO 28006KT 3SM BR BKN016 BKN025 OVC044 M05/M07 A3019 RMK AO2 SNE55 P0000 T10501072
KDUJ 281253Z AUTO 28006KT 2 1/2SM -SN BR BKN014 BKN025 OVC044 M05/M07 A3019 RMK AO2 VIS 1 3/4V5 SNB07E18B39 SLP249 P0000 T10501072
KDUJ 281246Z AUTO 27006KT 2SM -SN BR SCT017 BKN025 OVC044 M05/M07 A3019 RMK AO2 SNB07E18B39 P0000 T10501072
KDUJ 281153Z AUTO 28008KT 7SM SCT021 OVC050 M05/M08 A3018 RMK AO2 SLP244 60000 70005 T10501078 11039 21056 53017
KDUJ 281053Z AUTO 29008KT 10SM SCT055 M06/M08 A3016 RMK AO2 SLP238 T10561083
KDUJ 281018Z AUTO 28010KT 10SM FEW015 SCT022 OVC055 M04/M07 A3016 RMK AO2 T10441072
KDUJ 280953Z AUTO 29007KT 10SM SCT016 BKN027 OVC032 M04/M07 A3015 RMK AO2 SNB0855E05B27E35 SLP231 P0000 T10441067
KDUJ 280853Z AUTO 29006KT 6SM BR SCT016 BKN021 OVC065 M04/M07 A3013 RMK AO2 SNE32 SLP225 P0000 60000 T10441067 51009
KDUJ 280827Z AUTO 31008KT 5SM -SN BR FEW016 BKN021 OVC049 M04/M07 A3013 RMK AO2 P0000 T10441067
KDUJ 280820Z AUTO 30007KT 2 1/2SM -SN BR SCT016 BKN037 OVC049 M04/M07 A3013 RMK AO2 P0000 T10441067
KDUJ 280753Z AUTO 31008KT 4SM -SN BR SCT022 OVC050 M04/M07 A3012 RMK AO2 SNB48 SLP222 P0000 T10441067
KDUJ 280750Z AUTO 30007KT 5SM -SN SCT022 BKN050 OVC060 M04/M07 A3012 RMK AO2 SNB48 P0000
KDUJ 280653Z AUTO 29008KT 10SM BKN020 OVC027 M04/M07 A3010 RMK AO2 SLP214 T10391067
KDUJ 280609Z AUTO 29013KT 10SM BKN017 BKN090 M04/M07 A3009 RMK AO2 T10391067
KDUJ 280600Z AUTO 29009KT 10SM SCT019 BKN090 M04/M07 A3009 RMK AO2 T10391067
KDUJ 280553Z AUTO 28011KT 10SM BKN019 M04/M07 A3009 RMK AO2 SLP208 60001 T10391067 11022 21039 58001
KDUJ 280533Z AUTO 29011G20KT 10SM FEW011 SCT016 OVC021 M03/M06 A3009 RMK AO2 T10331061
KDUJ 280453Z AUTO 27009KT 5SM BR SCT009 BKN013 OVC018 M03/M04 A3009 RMK AO2 SNE11 SLP210 P0000 T10331044 400061033
KDUJ 280441Z AUTO 27009KT 6SM BR FEW007 BKN018 OVC024 M03/M04 A3009 RMK AO2 SNE11 P0000 T10331044
KDUJ 280431Z AUTO 26009KT 5SM BR FEW007 BKN012 OVC024 M03/M04 A3009 RMK AO2 SNE11 P0000 T10331044
KDUJ 280419Z AUTO 26009KT 3SM BR FEW007 BKN019 OVC025 M03/M05 A3009 RMK AO2 SNE11 P0000 T10331050
KDUJ 280408Z AUTO 26011KT 3SM -SN BR BKN010 BKN014 OVC023 M03/M04 A3009 RMK AO2 CIG 006V013 P0000 T10331044
KDUJ 280353Z AUTO 26010KT 2 1/2SM -SN BR BKN008 OVC014 M03/M04 A3009 RMK AO2 CIG 006V012 SLP208 P0001 T10331044
KDUJ 280341Z AUTO 25010KT 3SM -SN BR BKN008 OVC012 M03/M04 A3009 RMK AO2 CIG 006V011 P0001 T10331044
KDUJ 280338Z AUTO 25011KT 2 1/2SM -SN BR OVC010 M03/M04 A3009 RMK AO2 CIG 007V014 P0001 T10331044
KDUJ 280320Z AUTO 26011KT 5SM -SN BR BKN009 OVC013 M03/M05 A3009 RMK AO2 CIG 007V011 P0000 T10331050
KDUJ 280303Z AUTO 25012KT 3SM -SN BR OVC011 M03/M05 A3009 RMK AO2 P0000 T10331050
KDUJ 280253Z AUTO 26012KT 2 1/2SM -SN BR BKN009 OVC013 M03/M04 A3009 RMK AO2 SNB30 SLP210 P0000 60000 T10331044 51008
KDUJ 280250Z AUTO 25012KT 2 1/2SM -SN BR BKN009 OVC013 M03/M04 A3009 RMK AO2 SNB30 P0000
KDUJ 280241Z AUTO 25010KT 1 1/2SM -SN BR SCT009 BKN014 OVC022 M03/M04 A3009 RMK AO2 SNB30 P0000 T10331044
KDUJ 280232Z AUTO 26009KT 2 1/2SM -SN BR FEW009 BKN013 OVC021 M03/M05 A3009 RMK AO2 SNB30 P0000 T10331050
KDUJ 280153Z AUTO 27010KT 10SM OVC017 M03/M06 A3008 RMK AO2 SNB0056E31 SLP207 P0000 T10331056
KDUJ 280125Z AUTO 26010G17KT 3SM -SN BR BKN015 OVC023 M03/M05 A3008 RMK AO2 SNB0056 P0000 T10281050
KDUJ 280115Z AUTO 26012KT 2 1/2SM -SN BR FEW013 BKN020 OVC032 M03/M05 A3008 RMK AO2 SNB0056 P0000 T10281050
KDUJ 280053Z AUTO 28011KT 8SM BKN017 BKN022 OVC030 M03/M05 A3008 RMK AO2 SNE2355 SLP206 P0000 T10281050
KDUJ 272353Z AUTO 28010KT 4SM -SN BR FEW012 BKN018 OVC027 M02/M04 A3006 RMK AO2 SLP201 P0000 60002 T10221044 10006 21022 53010
KDUJ 272349Z AUTO 28009KT 3SM -SN BR SCT012 BKN020 OVC027 M02/M04 A3007 RMK AO2 P0000
KDUJ 272346Z AUTO 28011KT 1 3/4SM -SN BR BKN012 BKN020 OVC027 M02/M04 A3007 RMK AO2 P0000 T10221039
KDUJ 272336Z AUTO 30010G18KT 1 1/2SM -SN BR FEW007 SCT011 OVC018 M02/M04 A3006 RMK AO2 P0000 T10221044
KDUJ 272324Z AUTO 29011G19KT 1 3/4SM -SN BR FEW008 BKN012 OVC036 M02/M04 A3006 RMK AO2 P0000 T10171039
KDUJ 272317Z AUTO 29008KT 1 3/4SM -SN BR BKN010 BKN018 OVC036 M02/M03 A3006 RMK AO2 P0000 T10171033
KDUJ 272315Z AUTO 29007G15KT 2SM -SN BR SCT012 BKN017 OVC036 M02/M03 A3005 RMK AO2 P0000 T10171033
KDUJ 272306Z AUTO 30010KT 3SM -SN BR SCT012 BKN021 OVC039 M02/M04 A3005 RMK AO2 P0000 T10171039
KDUJ 272253Z AUTO 30011G21KT 2 1/2SM -SN BR SCT013 OVC021 M02/M04 A3005 RMK AO2 SNE09B31 SLP194 P0000 T10171039
KDUJ 272249Z AUTO 29014G21KT 2 1/2SM -SN BR SCT013 BKN019 OVC029 M02/M03 A3005 RMK AO2 SNE09B31 P0000
KDUJ 272212Z AUTO 29006KT 3SM BR SCT007 BKN015 OVC025 M01/M03 A3004 RMK AO2 SNE09 P0000 T10111028
KDUJ 272207Z AUTO 30007KT 2SM -SN BR SCT007 BKN013 OVC021 M02/M03 A3003 RMK AO2 VIS 1 1/4V4 P0000 T10171028
KDUJ 272203Z AUTO 29006KT 1SM -SN BR BKN007 BKN013 OVC021 M01/M03 A3003 RMK AO2 P0000 T10111028
KDUJ 272153Z AUTO 30007KT 1/4SM SN FZFG BKN007 BKN013 OVC047 M01/M03 A3003 RMK AO2 SNB26 SLP188 P0002 T10111028
KDUJ 272145Z AUTO 29007KT 1/2SM -SN FZFG FEW007 BKN014 OVC037 M01/M03 A3002 RMK AO2 SNB26 P0000 T10111028
KDUJ 272143Z AUTO 28008KT 1 1/4SM -SN BR SCT012 BKN017 OVC037 M01/M03 A3002 RMK AO2 SNB26 P0000 T10111028
KDUJ 272125Z AUTO 26008KT 4SM HZ FEW016 BKN021 OVC035 M01/M03 A3002 RMK AO2 T10061033
KDUJ 272053Z AUTO 28007KT 9SM FEW017 BKN047 OVC060 M01/M03 A3001 RMK AO2 SLP180 T10061033 53008
KDUJ 271953Z AUTO 30006KT 10SM FEW034 SCT042 OVC055 00/M04 A2999 RMK AO2 SLP174 T00001044
KDUJ 271853Z AUTO 27008KT 10SM FEW026 SCT035 OVC060 00/M04 A2999 RMK AO2 SLP172 T00001039
KDUJ 271828Z AUTO 32008KT 10SM FEW018 SCT029 OVC060 01/M04 A2998 RMK AO2 T00061044
KDUJ 271817Z AUTO 31006KT 10SM SCT018 BKN024 OVC060 01/M03 A2998 RMK AO2 T00061033